sensor_id;sensor_type;location;lat;lon;timestamp;pressure;altitude;pressure_sealevel;temperature;humidity
64967;BME280;51710;38.732;-121.358;2022-08-03T00:00:49;100655.44;;;39.41;28.40
64967;BME280;51710;38.732;-121.358;2022-08-03T00:03:15;100652.78;;;39.32;28.41
64967;BME280;51710;38.732;-121.358;2022-08-03T00:05:41;100644.31;;;39.29;28.48
64967;BME280;51710;38.732;-121.358;2022-08-03T00:08:08;100643.69;;;39.35;28.47
64967;BME280;51710;38.732;-121.358;2022-08-03T00:10:34;100646.94;;;39.38;27.99
64967;BME280;51710;38.732;-121.358;2022-08-03T00:13:01;100642.19;;;39.38;27.57
64967;BME280;51710;38.732;-121.358;2022-08-03T00:15:27;100645.84;;;39.26;28.44
64967;BME280;51710;38.732;-121.358;2022-08-03T00:17:53;100641.19;;;39.18;28.03
64967;BME280;51710;38.732;-121.358;2022-08-03T00:20:20;100637.44;;;39.14;28.40
64967;BME280;51710;38.732;-121.358;2022-08-03T00:22:47;100636.56;;;39.10;29.37
64967;BME280;51710;38.732;-121.358;2022-08-03T00:25:14;100639.06;;;39.03;27.95
64967;BME280;51710;38.732;-121.358;2022-08-03T00:27:40;100635.72;;;38.98;28.13
64967;BME280;51710;38.732;-121.358;2022-08-03T00:30:07;100634.09;;;38.97;28.61
64967;BME280;51710;38.732;-121.358;2022-08-03T00:32:34;100626.28;;;39.02;28.05
64967;BME280;51710;38.732;-121.358;2022-08-03T00:35:00;100630.50;;;39.08;28.85
64967;BME280;51710;38.732;-121.358;2022-08-03T00:37:27;100626.06;;;39.07;28.84
64967;BME280;51710;38.732;-121.358;2022-08-03T00:39:54;100622.34;;;39.03;29.18
64967;BME280;51710;38.732;-121.358;2022-08-03T00:42:20;100619.81;;;38.98;28.53
64967;BME280;51710;38.732;-121.358;2022-08-03T00:44:46;100623.97;;;38.92;28.61
64967;BME280;51710;38.732;-121.358;2022-08-03T00:47:13;100614.78;;;38.80;28.70
64967;BME280;51710;38.732;-121.358;2022-08-03T00:49:39;100611.44;;;38.74;28.79
64967;BME280;51710;38.732;-121.358;2022-08-03T00:52:08;100611.66;;;38.69;27.98
64967;BME280;51710;38.732;-121.358;2022-08-03T00:54:38;100614.22;;;38.62;28.04
64967;BME280;51710;38.732;-121.358;2022-08-03T00:57:06;100607.03;;;38.61;27.96
64967;BME280;51710;38.732;-121.358;2022-08-03T00:59:32;100604.44;;;38.56;27.70
64967;BME280;51710;38.732;-121.358;2022-08-03T01:01:59;100604.66;;;38.51;27.67
64967;BME280;51710;38.732;-121.358;2022-08-03T01:04:26;100606.97;;;38.49;27.93
64967;BME280;51710;38.732;-121.358;2022-08-03T01:14:54;100611.59;;;38.33;27.58
64967;BME280;51710;38.732;-121.358;2022-08-03T01:17:33;100611.81;;;38.28;26.50
64967;BME280;51710;38.732;-121.358;2022-08-03T01:20:12;100603.69;;;38.23;27.40
64967;BME280;51710;38.732;-121.358;2022-08-03T01:28:28;100618.47;;;38.15;27.54
64967;BME280;51710;38.732;-121.358;2022-08-03T01:31:04;100618.63;;;38.18;27.06
64967;BME280;51710;38.732;-121.358;2022-08-03T01:33:40;100606.69;;;38.18;26.26
64967;BME280;51710;38.732;-121.358;2022-08-03T01:36:12;100611.28;;;38.14;26.72
64967;BME280;51710;38.732;-121.358;2022-08-03T01:38:52;100610.81;;;38.12;26.59
64967;BME280;51710;38.732;-121.358;2022-08-03T01:41:24;100602.47;;;38.12;26.73
64967;BME280;51710;38.732;-121.358;2022-08-03T01:43:54;100608.03;;;38.12;27.70
64967;BME280;51710;38.732;-121.358;2022-08-03T01:46:23;100604.63;;;38.06;27.57
64967;BME280;51710;38.732;-121.358;2022-08-03T01:48:51;100599.84;;;37.95;27.98
64967;BME280;51710;38.732;-121.358;2022-08-03T01:51:19;100603.88;;;37.85;27.46
64967;BME280;51710;38.732;-121.358;2022-08-03T01:53:48;100601.16;;;37.77;27.53
64967;BME280;51710;38.732;-121.358;2022-08-03T01:56:17;100604.16;;;37.72;27.94
64967;BME280;51710;38.732;-121.358;2022-08-03T01:58:45;100604.81;;;37.69;27.71
64967;BME280;51710;38.732;-121.358;2022-08-03T02:01:15;100610.22;;;37.74;28.76
64967;BME280;51710;38.732;-121.358;2022-08-03T02:03:42;100608.66;;;37.85;28.98
64967;BME280;51710;38.732;-121.358;2022-08-03T02:06:11;100608.44;;;37.90;29.35
64967;BME280;51710;38.732;-121.358;2022-08-03T02:08:39;100618.13;;;37.84;28.49
64967;BME280;51710;38.732;-121.358;2022-08-03T02:11:07;100616.13;;;37.72;29.16
64967;BME280;51710;38.732;-121.358;2022-08-03T02:13:34;100617.66;;;37.61;29.74
64967;BME280;51710;38.732;-121.358;2022-08-03T02:16:02;100620.34;;;37.49;29.92
64967;BME280;51710;38.732;-121.358;2022-08-03T02:18:30;100617.16;;;37.39;29.01
64967;BME280;51710;38.732;-121.358;2022-08-03T02:21:01;100612.53;;;37.22;29.55
64967;BME280;51710;38.732;-121.358;2022-08-03T02:23:29;100617.66;;;37.11;29.55
64967;BME280;51710;38.732;-121.358;2022-08-03T02:26:02;100610.28;;;37.15;29.32
64967;BME280;51710;38.732;-121.358;2022-08-03T02:28:34;100614.22;;;37.14;28.96
64967;BME280;51710;38.732;-121.358;2022-08-03T02:31:06;100611.34;;;37.02;28.93
64967;BME280;51710;38.732;-121.358;2022-08-03T02:33:43;100611.44;;;36.85;28.53
64967;BME280;51710;38.732;-121.358;2022-08-03T02:36:13;100618.88;;;36.64;28.61
64967;BME280;51710;38.732;-121.358;2022-08-03T02:38:43;100613.53;;;36.51;29.06
64967;BME280;51710;38.732;-121.358;2022-08-03T02:41:15;100606.56;;;36.36;28.80
64967;BME280;51710;38.732;-121.358;2022-08-03T02:43:45;100608.84;;;36.26;29.24
64967;BME280;51710;38.732;-121.358;2022-08-03T02:46:17;100612.78;;;36.16;29.01
64967;BME280;51710;38.732;-121.358;2022-08-03T02:48:47;100619.16;;;36.08;29.22
64967;BME280;51710;38.732;-121.358;2022-08-03T02:51:15;100612.81;;;35.99;28.99
64967;BME280;51710;38.732;-121.358;2022-08-03T02:53:45;100612.97;;;35.94;29.08
64967;BME280;51710;38.732;-121.358;2022-08-03T02:56:13;100614.31;;;35.88;29.36
64967;BME280;51710;38.732;-121.358;2022-08-03T02:58:43;100620.13;;;35.78;29.37
64967;BME280;51710;38.732;-121.358;2022-08-03T03:01:11;100622.28;;;35.64;29.67
64967;BME280;51710;38.732;-121.358;2022-08-03T03:03:39;100628.78;;;35.51;29.61
64967;BME280;51710;38.732;-121.358;2022-08-03T03:06:07;100623.56;;;35.41;29.81
64967;BME280;51710;38.732;-121.358;2022-08-03T03:08:34;100627.09;;;35.33;29.84
64967;BME280;51710;38.732;-121.358;2022-08-03T03:11:02;100638.50;;;35.23;30.21
64967;BME280;51710;38.732;-121.358;2022-08-03T03:13:30;100632.44;;;35.12;30.59
64967;BME280;51710;38.732;-121.358;2022-08-03T03:16:00;100636.53;;;35.06;30.50
64967;BME280;51710;38.732;-121.358;2022-08-03T03:18:28;100639.28;;;34.97;30.74
64967;BME280;51710;38.732;-121.358;2022-08-03T03:20:57;100644.72;;;34.89;31.25
64967;BME280;51710;38.732;-121.358;2022-08-03T03:23:24;100641.91;;;34.80;31.06
64967;BME280;51710;38.732;-121.358;2022-08-03T03:25:51;100637.19;;;34.72;31.84
64967;BME280;51710;38.732;-121.358;2022-08-03T03:28:18;100652.44;;;34.61;31.96
64967;BME280;51710;38.732;-121.358;2022-08-03T03:30:45;100651.22;;;34.45;31.71
64967;BME280;51710;38.732;-121.358;2022-08-03T03:33:12;100658.25;;;34.29;32.25
64967;BME280;51710;38.732;-121.358;2022-08-03T03:35:40;100655.00;;;34.05;32.43
64967;BME280;51710;38.732;-121.358;2022-08-03T03:38:08;100652.06;;;33.88;33.04
64967;BME280;51710;38.732;-121.358;2022-08-03T03:40:36;100658.28;;;33.71;32.57
64967;BME280;51710;38.732;-121.358;2022-08-03T03:43:07;100657.28;;;33.54;32.87
64967;BME280;51710;38.732;-121.358;2022-08-03T03:45:34;100668.59;;;33.44;33.69
64967;BME280;51710;38.732;-121.358;2022-08-03T03:48:03;100668.38;;;33.27;33.36
64967;BME280;51710;38.732;-121.358;2022-08-03T03:50:34;100664.81;;;33.13;34.00
64967;BME280;51710;38.732;-121.358;2022-08-03T03:53:03;100669.00;;;32.96;33.99
64967;BME280;51710;38.732;-121.358;2022-08-03T03:55:30;100672.00;;;32.81;34.43
64967;BME280;51710;38.732;-121.358;2022-08-03T03:57:56;100682.44;;;32.71;33.87
64967;BME280;51710;38.732;-121.358;2022-08-03T04:00:22;100682.09;;;32.59;33.84
64967;BME280;51710;38.732;-121.358;2022-08-03T04:02:49;100681.56;;;32.43;34.46
64967;BME280;51710;38.732;-121.358;2022-08-03T04:05:15;100689.47;;;32.31;34.79
64967;BME280;51710;38.732;-121.358;2022-08-03T04:08:16;100693.09;;;32.13;34.37
64967;BME280;51710;38.732;-121.358;2022-08-03T04:13:36;100694.31;;;31.88;34.57
64967;BME280;51710;38.732;-121.358;2022-08-03T04:16:04;100696.97;;;31.75;35.05
64967;BME280;51710;38.732;-121.358;2022-08-03T04:18:33;100709.47;;;31.67;35.19
64967;BME280;51710;38.732;-121.358;2022-08-03T04:21:09;100711.53;;;31.57;34.75
64967;BME280;51710;38.732;-121.358;2022-08-03T04:23:42;100715.53;;;31.46;34.96
64967;BME280;51710;38.732;-121.358;2022-08-03T04:26:12;100725.06;;;31.35;34.99
64967;BME280;51710;38.732;-121.358;2022-08-03T04:28:42;100714.94;;;31.25;35.06
64967;BME280;51710;38.732;-121.358;2022-08-03T04:31:12;100720.56;;;31.15;35.28
64967;BME280;51710;38.732;-121.358;2022-08-03T04:33:38;100727.81;;;31.06;35.52
64967;BME280;51710;38.732;-121.358;2022-08-03T04:36:08;100727.34;;;30.99;35.60
64967;BME280;51710;38.732;-121.358;2022-08-03T04:38:39;100719.50;;;30.87;35.68
64967;BME280;51710;38.732;-121.358;2022-08-03T04:41:09;100736.63;;;30.79;35.70
64967;BME280;51710;38.732;-121.358;2022-08-03T04:43:37;100744.38;;;30.72;35.43
64967;BME280;51710;38.732;-121.358;2022-08-03T04:46:07;100745.25;;;30.68;35.69
64967;BME280;51710;38.732;-121.358;2022-08-03T04:48:33;100744.78;;;30.61;36.08
64967;BME280;51710;38.732;-121.358;2022-08-03T04:51:00;100753.38;;;30.54;35.51
64967;BME280;51710;38.732;-121.358;2022-08-03T04:53:29;100755.91;;;30.46;36.00
64967;BME280;51710;38.732;-121.358;2022-08-03T04:56:03;100760.09;;;30.38;35.71
64967;BME280;51710;38.732;-121.358;2022-08-03T04:58:30;100762.63;;;30.30;35.93
64967;BME280;51710;38.732;-121.358;2022-08-03T05:00:57;100763.72;;;30.24;35.81
64967;BME280;51710;38.732;-121.358;2022-08-03T05:03:23;100761.84;;;30.19;35.88
64967;BME280;51710;38.732;-121.358;2022-08-03T05:05:50;100775.63;;;30.14;35.46
64967;BME280;51710;38.732;-121.358;2022-08-03T05:08:16;100770.16;;;30.09;36.06
64967;BME280;51710;38.732;-121.358;2022-08-03T05:10:43;100771.00;;;30.05;35.69
64967;BME280;51710;38.732;-121.358;2022-08-03T05:13:09;100773.25;;;29.98;35.80
64967;BME280;51710;38.732;-121.358;2022-08-03T05:15:38;100771.94;;;29.90;36.44
64967;BME280;51710;38.732;-121.358;2022-08-03T05:18:04;100772.22;;;29.83;36.35
64967;BME280;51710;38.732;-121.358;2022-08-03T05:20:31;100764.31;;;29.77;36.18
64967;BME280;51710;38.732;-121.358;2022-08-03T05:22:58;100768.72;;;29.73;36.68
64967;BME280;51710;38.732;-121.358;2022-08-03T05:25:26;100775.88;;;29.69;36.64
64967;BME280;51710;38.732;-121.358;2022-08-03T05:27:52;100784.63;;;29.66;36.83
64967;BME280;51710;38.732;-121.358;2022-08-03T05:30:19;100776.41;;;29.61;36.68
64967;BME280;51710;38.732;-121.358;2022-08-03T05:32:45;100779.19;;;29.56;37.18
64967;BME280;51710;38.732;-121.358;2022-08-03T05:35:12;100779.78;;;29.48;37.39
64967;BME280;51710;38.732;-121.358;2022-08-03T05:37:38;100778.16;;;29.42;37.25
64967;BME280;51710;38.732;-121.358;2022-08-03T05:40:05;100779.28;;;29.36;37.56
64967;BME280;51710;38.732;-121.358;2022-08-03T05:42:31;100775.72;;;29.30;37.28
64967;BME280;51710;38.732;-121.358;2022-08-03T05:44:58;100777.66;;;29.25;37.27
64967;BME280;51710;38.732;-121.358;2022-08-03T05:47:24;100778.75;;;29.19;37.30
64967;BME280;51710;38.732;-121.358;2022-08-03T05:49:50;100772.19;;;29.15;37.23
64967;BME280;51710;38.732;-121.358;2022-08-03T05:52:16;100766.16;;;29.13;37.51
64967;BME280;51710;38.732;-121.358;2022-08-03T05:54:43;100771.09;;;29.11;37.33
64967;BME280;51710;38.732;-121.358;2022-08-03T05:57:09;100767.22;;;29.07;37.80
64967;BME280;51710;38.732;-121.358;2022-08-03T05:59:37;100771.66;;;29.03;38.13
64967;BME280;51710;38.732;-121.358;2022-08-03T06:02:04;100775.50;;;28.97;38.21
64967;BME280;51710;38.732;-121.358;2022-08-03T06:04:30;100773.88;;;28.91;38.06
64967;BME280;51710;38.732;-121.358;2022-08-03T06:06:57;100777.44;;;28.86;38.45
64967;BME280;51710;38.732;-121.358;2022-08-03T06:09:23;100776.59;;;28.80;38.54
64967;BME280;51710;38.732;-121.358;2022-08-03T06:11:50;100773.31;;;28.73;38.62
64967;BME280;51710;38.732;-121.358;2022-08-03T06:14:16;100771.97;;;28.66;38.76
64967;BME280;51710;38.732;-121.358;2022-08-03T06:16:42;100780.19;;;28.61;39.08
64967;BME280;51710;38.732;-121.358;2022-08-03T06:19:09;100771.69;;;28.52;38.87
64967;BME280;51710;38.732;-121.358;2022-08-03T06:21:35;100786.47;;;28.46;38.99
64967;BME280;51710;38.732;-121.358;2022-08-03T06:24:01;100776.06;;;28.38;39.11
64967;BME280;51710;38.732;-121.358;2022-08-03T06:26:28;100773.03;;;28.35;39.76
64967;BME280;51710;38.732;-121.358;2022-08-03T06:28:54;100767.28;;;28.31;39.51
64967;BME280;51710;38.732;-121.358;2022-08-03T06:31:23;100779.88;;;28.27;39.67
64967;BME280;51710;38.732;-121.358;2022-08-03T06:33:51;100777.69;;;28.24;39.60
64967;BME280;51710;38.732;-121.358;2022-08-03T06:36:17;100776.84;;;28.19;39.78
64967;BME280;51710;38.732;-121.358;2022-08-03T06:38:43;100774.09;;;28.14;39.92
64967;BME280;51710;38.732;-121.358;2022-08-03T06:41:10;100777.91;;;28.08;39.55
64967;BME280;51710;38.732;-121.358;2022-08-03T06:43:36;100768.28;;;28.00;40.12
64967;BME280;51710;38.732;-121.358;2022-08-03T06:46:03;100768.28;;;27.95;39.79
64967;BME280;51710;38.732;-121.358;2022-08-03T06:48:30;100765.50;;;27.90;40.06
64967;BME280;51710;38.732;-121.358;2022-08-03T06:50:56;100768.22;;;27.85;39.91
64967;BME280;51710;38.732;-121.358;2022-08-03T06:53:23;100763.03;;;27.79;40.12
64967;BME280;51710;38.732;-121.358;2022-08-03T06:55:50;100764.91;;;27.73;40.17
64967;BME280;51710;38.732;-121.358;2022-08-03T06:58:17;100762.72;;;27.70;39.99
64967;BME280;51710;38.732;-121.358;2022-08-03T07:00:43;100763.78;;;27.64;39.97
64967;BME280;51710;38.732;-121.358;2022-08-03T07:03:10;100755.56;;;27.59;40.37
64967;BME280;51710;38.732;-121.358;2022-08-03T07:05:36;100771.69;;;27.55;40.38
64967;BME280;51710;38.732;-121.358;2022-08-03T07:08:03;100770.84;;;27.50;40.43
64967;BME280;51710;38.732;-121.358;2022-08-03T07:10:29;100767.25;;;27.44;40.41
64967;BME280;51710;38.732;-121.358;2022-08-03T07:12:56;100767.53;;;27.43;40.37
64967;BME280;51710;38.732;-121.358;2022-08-03T07:15:25;100780.13;;;27.39;40.28
64967;BME280;51710;38.732;-121.358;2022-08-03T07:17:51;100786.09;;;27.36;40.51
64967;BME280;51710;38.732;-121.358;2022-08-03T07:20:18;100784.44;;;27.30;40.44
64967;BME280;51710;38.732;-121.358;2022-08-03T07:22:44;100784.13;;;27.26;40.43
64967;BME280;51710;38.732;-121.358;2022-08-03T07:25:11;100781.09;;;27.23;40.52
64967;BME280;51710;38.732;-121.358;2022-08-03T07:27:37;100785.97;;;27.16;40.44
64967;BME280;51710;38.732;-121.358;2022-08-03T07:30:07;100794.13;;;27.11;40.28
64967;BME280;51710;38.732;-121.358;2022-08-03T07:32:34;100790.28;;;27.07;40.37
64967;BME280;51710;38.732;-121.358;2022-08-03T07:35:01;100800.63;;;27.00;40.42
64967;BME280;51710;38.732;-121.358;2022-08-03T07:37:28;100799.22;;;26.97;40.33
64967;BME280;51710;38.732;-121.358;2022-08-03T07:39:55;100803.84;;;26.92;40.26
64967;BME280;51710;38.732;-121.358;2022-08-03T07:42:22;100808.47;;;26.86;40.40
64967;BME280;51710;38.732;-121.358;2022-08-03T07:44:48;100803.22;;;26.80;40.23
64967;BME280;51710;38.732;-121.358;2022-08-03T07:47:19;100805.34;;;26.73;40.46
64967;BME280;51710;38.732;-121.358;2022-08-03T07:49:47;100797.31;;;26.66;40.46
64967;BME280;51710;38.732;-121.358;2022-08-03T07:52:13;100796.22;;;26.62;40.42
64967;BME280;51710;38.732;-121.358;2022-08-03T07:54:58;100795.06;;;26.58;40.30
64967;BME280;51710;38.732;-121.358;2022-08-03T07:57:24;100792.31;;;26.53;40.30
64967;BME280;51710;38.732;-121.358;2022-08-03T07:59:50;100788.69;;;26.47;40.53
64967;BME280;51710;38.732;-121.358;2022-08-03T08:02:16;100790.84;;;26.45;40.54
64967;BME280;51710;38.732;-121.358;2022-08-03T08:04:43;100796.31;;;26.45;40.44
64967;BME280;51710;38.732;-121.358;2022-08-03T08:07:09;100802.06;;;26.44;40.80
64967;BME280;51710;38.732;-121.358;2022-08-03T08:09:35;100806.09;;;26.41;40.57
64967;BME280;51710;38.732;-121.358;2022-08-03T08:12:02;100801.16;;;26.38;40.55
64967;BME280;51710;38.732;-121.358;2022-08-03T08:14:29;100795.66;;;26.33;40.30
64967;BME280;51710;38.732;-121.358;2022-08-03T08:16:55;100790.16;;;26.28;40.27
64967;BME280;51710;38.732;-121.358;2022-08-03T08:19:21;100786.84;;;26.26;40.32
64967;BME280;51710;38.732;-121.358;2022-08-03T08:21:48;100781.09;;;26.23;40.26
64967;BME280;51710;38.732;-121.358;2022-08-03T08:24:14;100775.84;;;26.16;40.41
64967;BME280;51710;38.732;-121.358;2022-08-03T08:26:40;100775.22;;;26.09;40.21
64967;BME280;51710;38.732;-121.358;2022-08-03T08:29:07;100781.69;;;26.03;40.69
64967;BME280;51710;38.732;-121.358;2022-08-03T08:31:33;100776.16;;;25.98;40.63
64967;BME280;51710;38.732;-121.358;2022-08-03T08:34:00;100772.31;;;25.94;40.40
64967;BME280;51710;38.732;-121.358;2022-08-03T08:36:33;100772.00;;;25.91;40.57
64967;BME280;51710;38.732;-121.358;2022-08-03T08:39:00;100775.47;;;25.86;40.46
64967;BME280;51710;38.732;-121.358;2022-08-03T08:41:27;100771.59;;;25.82;40.83
64967;BME280;51710;38.732;-121.358;2022-08-03T08:43:54;100775.38;;;25.76;40.57
64967;BME280;51710;38.732;-121.358;2022-08-03T08:46:20;100780.00;;;25.76;41.04
64967;BME280;51710;38.732;-121.358;2022-08-03T08:48:48;100777.53;;;25.74;40.92
64967;BME280;51710;38.732;-121.358;2022-08-03T08:51:18;100782.41;;;25.72;40.83
64967;BME280;51710;38.732;-121.358;2022-08-03T08:53:48;100788.13;;;25.71;40.90
64967;BME280;51710;38.732;-121.358;2022-08-03T08:56:16;100785.66;;;25.69;40.77
64967;BME280;51710;38.732;-121.358;2022-08-03T08:58:48;100776.63;;;25.69;41.09
64967;BME280;51710;38.732;-121.358;2022-08-03T09:01:19;100777.41;;;25.64;40.86
64967;BME280;51710;38.732;-121.358;2022-08-03T09:03:47;100787.69;;;25.57;41.25
64967;BME280;51710;38.732;-121.358;2022-08-03T09:06:13;100784.91;;;25.52;41.85
64967;BME280;51710;38.732;-121.358;2022-08-03T09:08:40;100789.19;;;25.48;41.93
64967;BME280;51710;38.732;-121.358;2022-08-03T09:11:07;100786.72;;;25.46;41.42
64967;BME280;51710;38.732;-121.358;2022-08-03T09:13:33;100787.00;;;25.45;41.73
64967;BME280;51710;38.732;-121.358;2022-08-03T09:16:10;100781.78;;;25.43;41.59
64967;BME280;51710;38.732;-121.358;2022-08-03T09:18:37;100784.19;;;25.40;41.91
64967;BME280;51710;38.732;-121.358;2022-08-03T09:21:20;100776.81;;;25.40;41.86
64967;BME280;51710;38.732;-121.358;2022-08-03T09:23:49;100776.00;;;25.40;41.39
64967;BME280;51710;38.732;-121.358;2022-08-03T09:26:29;100766.16;;;25.39;41.60
64967;BME280;51710;38.732;-121.358;2022-08-03T09:31:36;100761.44;;;25.34;41.96
64967;BME280;51710;38.732;-121.358;2022-08-03T09:34:10;100761.72;;;25.33;41.63
64967;BME280;51710;38.732;-121.358;2022-08-03T09:36:48;100758.41;;;25.31;41.95
64967;BME280;51710;38.732;-121.358;2022-08-03T09:39:22;100754.53;;;25.27;41.98
64967;BME280;51710;38.732;-121.358;2022-08-03T09:42:06;100757.75;;;25.24;42.07
64967;BME280;51710;38.732;-121.358;2022-08-03T09:44:36;100759.41;;;25.25;41.68
64967;BME280;51710;38.732;-121.358;2022-08-03T09:47:03;100756.34;;;25.21;41.81
64967;BME280;51710;38.732;-121.358;2022-08-03T09:49:31;100753.88;;;25.20;41.87
64967;BME280;51710;38.732;-121.358;2022-08-03T09:52:00;100758.19;;;25.16;41.90
64967;BME280;51710;38.732;-121.358;2022-08-03T09:54:31;100750.50;;;25.13;42.12
64967;BME280;51710;38.732;-121.358;2022-08-03T09:56:58;100746.66;;;25.09;42.58
64967;BME280;51710;38.732;-121.358;2022-08-03T09:59:27;100752.59;;;25.06;42.40
64967;BME280;51710;38.732;-121.358;2022-08-03T10:01:55;100757.72;;;25.02;42.60
64967;BME280;51710;38.732;-121.358;2022-08-03T10:04:22;100758.81;;;25.01;42.43
64967;BME280;51710;38.732;-121.358;2022-08-03T10:09:29;100748.41;;;24.98;42.63
64967;BME280;51710;38.732;-121.358;2022-08-03T10:11:56;100746.50;;;24.99;42.35
64967;BME280;51710;38.732;-121.358;2022-08-03T10:14:24;100744.84;;;24.98;42.75
64967;BME280;51710;38.732;-121.358;2022-08-03T10:16:55;100744.84;;;24.98;42.91
64967;BME280;51710;38.732;-121.358;2022-08-03T10:19:21;100733.63;;;24.94;42.43
64967;BME280;51710;38.732;-121.358;2022-08-03T10:22:00;100727.03;;;24.90;42.60
64967;BME280;51710;38.732;-121.358;2022-08-03T10:24:29;100723.97;;;24.87;42.78
64967;BME280;51710;38.732;-121.358;2022-08-03T10:27:05;100725.53;;;24.83;42.73
64967;BME280;51710;38.732;-121.358;2022-08-03T10:29:42;100728.78;;;24.80;42.82
64967;BME280;51710;38.732;-121.358;2022-08-03T10:35:13;100735.81;;;24.76;42.96
64967;BME280;51710;38.732;-121.358;2022-08-03T10:37:49;100732.97;;;24.71;42.94
64967;BME280;51710;38.732;-121.358;2022-08-03T10:40:21;100742.25;;;24.70;42.77
64967;BME280;51710;38.732;-121.358;2022-08-03T10:42:50;100739.75;;;24.68;42.93
64967;BME280;51710;38.732;-121.358;2022-08-03T10:45:29;100739.75;;;24.68;42.90
64967;BME280;51710;38.732;-121.358;2022-08-03T10:47:58;100741.88;;;24.66;43.17
64967;BME280;51710;38.732;-121.358;2022-08-03T10:50:26;100743.19;;;24.64;43.03
64967;BME280;51710;38.732;-121.358;2022-08-03T10:53:00;100736.94;;;24.63;43.06
64967;BME280;51710;38.732;-121.358;2022-08-03T10:55:37;100743.19;;;24.64;43.19
64967;BME280;51710;38.732;-121.358;2022-08-03T11:01:10;100743.63;;;24.56;42.99
64967;BME280;51710;38.732;-121.358;2022-08-03T11:06:26;100737.00;;;24.51;43.30
64967;BME280;51710;38.732;-121.358;2022-08-03T11:09:22;100731.56;;;24.51;43.30
64967;BME280;51710;38.732;-121.358;2022-08-03T11:11:48;100723.41;;;24.51;43.40
64967;BME280;51710;38.732;-121.358;2022-08-03T11:14:19;100725.06;;;24.52;43.66
64967;BME280;51710;38.732;-121.358;2022-08-03T11:17:04;100714.97;;;24.53;43.46
64967;BME280;51710;38.732;-121.358;2022-08-03T11:19:51;100716.31;;;24.50;43.39
64967;BME280;51710;38.732;-121.358;2022-08-03T11:22:19;100725.56;;;24.49;43.31
64967;BME280;51710;38.732;-121.358;2022-08-03T11:27:19;100720.91;;;24.50;43.37
64967;BME280;51710;38.732;-121.358;2022-08-03T11:35:10;100710.88;;;24.50;43.52
64967;BME280;51710;38.732;-121.358;2022-08-03T11:40:35;100706.25;;;24.51;43.42
64967;BME280;51710;38.732;-121.358;2022-08-03T11:45:36;100702.13;;;24.48;43.51
64967;BME280;51710;38.732;-121.358;2022-08-03T11:48:15;100699.63;;;24.47;43.64
64967;BME280;51710;38.732;-121.358;2022-08-03T11:50:42;100700.16;;;24.44;43.41
64967;BME280;51710;38.732;-121.358;2022-08-03T11:53:15;100699.81;;;24.40;43.71
64967;BME280;51710;38.732;-121.358;2022-08-03T11:55:43;100698.41;;;24.38;43.52
64967;BME280;51710;38.732;-121.358;2022-08-03T11:58:20;100711.75;;;24.39;43.46
64967;BME280;51710;38.732;-121.358;2022-08-03T12:00:48;100724.78;;;24.37;43.50
64967;BME280;51710;38.732;-121.358;2022-08-03T12:03:16;100717.97;;;24.35;43.94
64967;BME280;51710;38.732;-121.358;2022-08-03T12:05:51;100723.09;;;24.31;43.67
64967;BME280;51710;38.732;-121.358;2022-08-03T12:10:54;100717.31;;;24.28;43.90
64967;BME280;51710;38.732;-121.358;2022-08-03T12:13:22;100716.97;;;24.24;43.78
64967;BME280;51710;38.732;-121.358;2022-08-03T12:15:53;100712.03;;;24.21;43.86
64967;BME280;51710;38.732;-121.358;2022-08-03T12:18:20;100711.19;;;24.21;44.14
64967;BME280;51710;38.732;-121.358;2022-08-03T12:20:48;100718.78;;;24.19;43.99
64967;BME280;51710;38.732;-121.358;2022-08-03T12:23:15;100720.91;;;24.17;43.78
64967;BME280;51710;38.732;-121.358;2022-08-03T12:25:43;100723.88;;;24.15;43.73
64967;BME280;51710;38.732;-121.358;2022-08-03T12:30:42;100734.44;;;24.12;43.97
64967;BME280;51710;38.732;-121.358;2022-08-03T12:33:16;100737.91;;;24.07;43.99
64967;BME280;51710;38.732;-121.358;2022-08-03T12:35:46;100733.28;;;24.08;43.97
64967;BME280;51710;38.732;-121.358;2022-08-03T12:38:17;100724.53;;;24.06;43.96
64967;BME280;51710;38.732;-121.358;2022-08-03T12:40:44;100717.44;;;24.05;43.95
64967;BME280;51710;38.732;-121.358;2022-08-03T12:43:14;100720.41;;;24.03;43.89
64967;BME280;51710;38.732;-121.358;2022-08-03T12:45:40;100720.41;;;24.03;44.10
64967;BME280;51710;38.732;-121.358;2022-08-03T12:48:08;100723.63;;;24.00;44.35
64967;BME280;51710;38.732;-121.358;2022-08-03T12:50:38;100718.63;;;23.97;44.24
64967;BME280;51710;38.732;-121.358;2022-08-03T12:53:07;100718.06;;;23.95;44.42
64967;BME280;51710;38.732;-121.358;2022-08-03T12:55:36;100718.06;;;23.95;44.42
64967;BME280;51710;38.732;-121.358;2022-08-03T12:58:05;100724.81;;;23.93;44.58
64967;BME280;51710;38.732;-121.358;2022-08-03T13:00:32;100730.25;;;23.93;44.48
64967;BME280;51710;38.732;-121.358;2022-08-03T13:03:00;100726.09;;;23.90;44.45
64967;BME280;51710;38.732;-121.358;2022-08-03T13:05:27;100731.78;;;23.89;44.76
64967;BME280;51710;38.732;-121.358;2022-08-03T13:07:54;100735.34;;;23.89;44.57
64967;BME280;51710;38.732;-121.358;2022-08-03T13:10:31;100735.00;;;23.86;44.75
64967;BME280;51710;38.732;-121.358;2022-08-03T13:12:58;100739.06;;;23.83;44.74
64967;BME280;51710;38.732;-121.358;2022-08-03T13:15:28;100748.53;;;23.81;44.94
64967;BME280;51710;38.732;-121.358;2022-08-03T13:17:56;100741.09;;;23.76;45.21